Time;durP1;ratioP1;P1;durP2;ratioP2;P2;SDS_P1;SDS_P2;PMS_P1;PMS_P2;Temp;Humidity;BMP_temperature;BMP_pressure;BME280_temperature;BME280_humidity;BME280_pressure;Samples;Min_cycle;Max_cycle;Signal;HPM_P1;HPM_P2
2024/01/29 00:02:19;;;;;;;0.30;0.20;;;2.10;99.90;;;;;;5090937;28;20532;-76
2024/01/29 00:04:44;;;;;;;0.30;0.30;;;2.10;99.90;;;;;;5089588;28;20188;-77
2024/01/29 00:07:10;;;;;;;0.30;0.30;;;2.00;99.90;;;;;;5089627;28;20665;-82
2024/01/29 00:09:36;;;;;;;0.30;0.30;;;2.10;99.90;;;;;;5090415;28;20558;-82
2024/01/29 00:12:02;;;;;;;0.30;0.20;;;2.10;99.90;;;;;;5090730;28;20452;-77
2024/01/29 00:14:28;;;;;;;0.30;0.30;;;2.10;99.90;;;;;;5090108;28;20279;-82
2024/01/29 00:16:54;;;;;;;0.30;0.30;;;2.10;99.90;;;;;;5091065;28;20185;-77
2024/01/29 00:19:20;;;;;;;0.30;0.30;;;2.10;99.90;;;;;;5090314;28;20425;-77
2024/01/29 00:21:45;;;;;;;0.30;0.30;;;2.10;99.90;;;;;;5090945;28;20173;-78
2024/01/29 00:24:11;;;;;;;0.30;0.20;;;2.00;99.90;;;;;;5090200;28;20831;-82
2024/01/29 00:26:40;;;;;;;0.30;0.30;;;2.00;99.90;;;;;;5090887;28;20556;-82
2024/01/29 00:29:05;;;;;;;0.30;0.30;;;2.00;99.90;;;;;;5089109;28;20696;-77
2024/01/29 00:31:31;;;;;;;0.30;0.30;;;2.00;99.90;;;;;;5090545;28;20522;-77
2024/01/29 00:33:58;;;;;;;0.30;0.30;;;1.90;99.90;;;;;;5088759;28;20697;-77
2024/01/29 00:36:23;;;;;;;0.30;0.30;;;1.90;99.90;;;;;;5089145;28;20215;-77
2024/01/29 00:38:49;;;;;;;0.30;0.30;;;1.90;99.90;;;;;;5089789;28;20295;-78
2024/01/29 00:41:15;;;;;;;0.30;0.30;;;1.90;99.90;;;;;;5090112;28;20211;-81
2024/01/29 00:43:40;;;;;;;0.30;0.30;;;1.90;99.90;;;;;;5090051;28;20197;-77
2024/01/29 00:46:06;;;;;;;0.30;0.30;;;1.80;99.90;;;;;;5089713;28;20775;-77
2024/01/29 00:48:32;;;;;;;0.30;0.30;;;1.70;99.90;;;;;;5089937;28;20204;-82
2024/01/29 00:50:57;;;;;;;0.30;0.30;;;1.70;99.90;;;;;;5090086;28;20216;-78
2024/01/29 00:53:24;;;;;;;0.30;0.30;;;1.60;99.90;;;;;;5089907;28;20201;-82
2024/01/29 00:55:49;;;;;;;0.30;0.30;;;1.60;99.90;;;;;;5088486;28;20247;-78
2024/01/29 00:58:15;;;;;;;0.30;0.30;;;1.60;99.90;;;;;;5090121;28;20243;-77
2024/01/29 01:00:44;;;;;;;0.30;0.30;;;1.50;99.90;;;;;;5087295;28;20173;-78
2024/01/29 01:03:10;;;;;;;0.30;0.30;;;1.50;99.90;;;;;;5088298;28;20429;-78
2024/01/29 01:05:36;;;;;;;0.30;0.30;;;1.40;99.90;;;;;;5088224;28;20704;-77
2024/01/29 01:08:02;;;;;;;0.30;0.30;;;1.40;99.90;;;;;;5089537;28;20621;-82
2024/01/29 01:10:28;;;;;;;0.30;0.30;;;1.40;99.90;;;;;;5088058;28;20619;-77
2024/01/29 01:12:53;;;;;;;0.30;0.30;;;1.40;99.90;;;;;;5088370;28;20528;-82
2024/01/29 01:15:19;;;;;;;0.30;0.20;;;1.30;99.90;;;;;;5089269;28;20190;-82
2024/01/29 01:17:48;;;;;;;0.30;0.30;;;1.30;99.90;;;;;;5088041;28;20226;-82
2024/01/29 01:20:14;;;;;;;0.30;0.30;;;1.30;99.90;;;;;;5088113;28;20180;-77
2024/01/29 01:22:40;;;;;;;0.30;0.30;;;1.30;99.90;;;;;;5089535;28;20204;-82
2024/01/29 01:25:06;;;;;;;0.30;0.30;;;1.30;99.90;;;;;;5089828;28;20180;-77
2024/01/29 01:27:33;;;;;;;0.30;0.30;;;1.30;99.90;;;;;;5089894;28;20434;-82
2024/01/29 01:29:58;;;;;;;0.30;0.30;;;1.20;99.90;;;;;;5089358;28;20444;-78
2024/01/29 01:32:25;;;;;;;0.30;0.30;;;1.20;99.90;;;;;;5089970;28;20243;-77
2024/01/29 01:34:50;;;;;;;0.30;0.30;;;1.20;99.90;;;;;;5089700;28;20376;-81
2024/01/29 01:37:16;;;;;;;0.30;0.30;;;1.10;99.90;;;;;;5089666;28;20261;-78
2024/01/29 01:39:41;;;;;;;0.30;0.30;;;1.10;99.90;;;;;;5088432;28;20203;-77
2024/01/29 01:42:08;;;;;;;0.30;0.30;;;1.00;99.90;;;;;;5091585;28;20176;-77
2024/01/29 01:44:34;;;;;;;0.30;0.30;;;1.00;99.90;;;;;;5090959;28;20441;-82
2024/01/29 01:47:00;;;;;;;0.30;0.30;;;1.00;99.90;;;;;;5091982;28;20180;-77
2024/01/29 01:49:27;;;;;;;0.30;0.30;;;1.00;99.90;;;;;;5092760;28;20202;-82
2024/01/29 01:51:53;;;;;;;0.30;0.30;;;1.00;99.90;;;;;;5093349;28;21015;-77
2024/01/29 01:54:19;;;;;;;0.30;0.30;;;1.10;99.90;;;;;;5091588;28;20311;-80
2024/01/29 01:56:46;;;;;;;0.30;0.30;;;1.00;99.90;;;;;;5093257;28;20314;-77
2024/01/29 01:59:12;;;;;;;0.30;0.30;;;1.00;99.90;;;;;;5092809;28;20249;-83
2024/01/29 02:01:38;;;;;;;0.30;0.30;;;1.00;99.90;;;;;;5093520;28;20173;-77
2024/01/29 02:04:05;;;;;;;0.30;0.30;;;1.00;99.90;;;;;;5091738;28;20456;-81
2024/01/29 02:06:31;;;;;;;0.30;0.30;;;1.10;99.90;;;;;;5092868;28;20494;-77
2024/01/29 02:08:58;;;;;;;0.30;0.30;;;1.10;99.90;;;;;;5091632;28;20204;-77
2024/01/29 02:11:24;;;;;;;0.30;0.30;;;1.10;99.90;;;;;;5091788;28;20188;-82
2024/01/29 02:13:50;;;;;;;0.30;0.30;;;1.20;99.90;;;;;;5093348;28;20219;-82
2024/01/29 02:16:15;;;;;;;0.30;0.30;;;1.20;99.90;;;;;;5091515;28;20184;-78
2024/01/29 02:18:41;;;;;;;0.30;0.30;;;1.20;99.90;;;;;;5092711;28;20212;-82
2024/01/29 02:21:07;;;;;;;0.30;0.30;;;1.20;99.90;;;;;;5093078;28;20527;-82
2024/01/29 02:23:33;;;;;;;0.30;0.30;;;1.20;99.90;;;;;;5093268;28;20407;-82
2024/01/29 02:25:58;;;;;;;0.30;0.30;;;1.20;99.90;;;;;;5092686;28;20504;-82
2024/01/29 02:28:25;;;;;;;0.30;0.30;;;1.20;99.90;;;;;;5092780;28;20665;-77
2024/01/29 02:30:51;;;;;;;0.30;0.30;;;1.20;99.90;;;;;;5092723;28;20172;-77
2024/01/29 02:33:17;;;;;;;0.30;0.30;;;1.20;99.90;;;;;;5091124;28;20287;-77
2024/01/29 02:35:48;;;;;;;0.30;0.30;;;1.20;99.90;;;;;;5091080;28;20192;-77
2024/01/29 02:38:13;;;;;;;0.30;0.30;;;1.10;99.90;;;;;;5092355;28;21102;-77
2024/01/29 02:40:39;;;;;;;0.30;0.30;;;1.10;99.90;;;;;;5092237;28;20184;-81
2024/01/29 02:43:05;;;;;;;0.30;0.30;;;1.10;99.90;;;;;;5092262;28;20232;-77
2024/01/29 02:45:30;;;;;;;0.30;0.30;;;1.10;99.90;;;;;;5092225;28;20173;-82
2024/01/29 02:47:56;;;;;;;0.30;0.30;;;1.10;99.90;;;;;;5090949;28;20221;-77
2024/01/29 02:50:22;;;;;;;0.30;0.20;;;1.10;99.90;;;;;;5091994;28;20172;-82
2024/01/29 02:52:48;;;;;;;0.30;0.30;;;1.10;99.90;;;;;;5091497;28;20190;-82
2024/01/29 02:55:14;;;;;;;0.30;0.30;;;1.10;99.90;;;;;;5092115;28;20185;-79
2024/01/29 02:57:40;;;;;;;0.30;0.30;;;1.10;99.90;;;;;;5091807;28;20226;-82
2024/01/29 03:00:06;;;;;;;0.30;0.30;;;1.10;99.90;;;;;;5092003;28;20265;-76
2024/01/29 03:02:32;;;;;;;0.30;0.30;;;1.10;99.90;;;;;;5090566;28;20266;-82
2024/01/29 03:04:58;;;;;;;0.30;0.30;;;1.10;99.90;;;;;;5090750;28;20302;-78
2024/01/29 03:07:23;;;;;;;0.30;0.30;;;1.10;99.90;;;;;;5092034;28;20308;-79
2024/01/29 03:09:49;;;;;;;0.30;0.30;;;1.10;99.90;;;;;;5090080;28;20180;-77
2024/01/29 03:12:15;;;;;;;0.30;0.30;;;1.00;99.90;;;;;;5090759;28;20187;-81
2024/01/29 03:14:41;;;;;;;0.30;0.30;;;1.00;99.90;;;;;;5089947;28;20474;-77
2024/01/29 03:17:07;;;;;;;0.30;0.30;;;1.00;99.90;;;;;;5092135;28;20173;-82
2024/01/29 03:19:33;;;;;;;0.30;0.30;;;1.00;99.90;;;;;;5091483;28;20196;-77
2024/01/29 03:21:59;;;;;;;0.30;0.30;;;1.00;99.90;;;;;;5092083;28;20605;-82
2024/01/29 03:24:24;;;;;;;0.30;0.30;;;1.00;99.90;;;;;;5090124;28;20326;-82
2024/01/29 03:26:50;;;;;;;0.30;0.30;;;1.00;99.90;;;;;;5090431;28;20172;-77
2024/01/29 03:29:16;;;;;;;0.30;0.30;;;0.90;99.90;;;;;;5090103;28;20203;-77
2024/01/29 03:31:42;;;;;;;0.30;0.30;;;0.90;99.90;;;;;;5091580;28;20181;-82
2024/01/29 03:34:08;;;;;;;0.30;0.30;;;0.90;99.90;;;;;;5089775;28;20287;-77
2024/01/29 03:36:34;;;;;;;0.30;0.30;;;0.90;99.90;;;;;;5090128;28;20188;-77
2024/01/29 03:38:59;;;;;;;0.30;0.30;;;1.00;99.90;;;;;;5089610;28;20402;-82
2024/01/29 03:41:25;;;;;;;0.30;0.30;;;0.90;99.90;;;;;;5090856;28;20865;-82
2024/01/29 03:43:51;;;;;;;0.30;0.30;;;0.90;99.90;;;;;;5091180;28;20714;-77
2024/01/29 03:46:16;;;;;;;0.30;0.30;;;1.00;99.90;;;;;;5089763;28;20431;-82
2024/01/29 03:48:42;;;;;;;0.30;0.30;;;0.90;99.90;;;;;;5091086;28;20260;-82
2024/01/29 03:51:09;;;;;;;0.30;0.20;;;0.90;99.90;;;;;;5089757;28;20196;-77
2024/01/29 03:53:34;;;;;;;0.30;0.30;;;0.90;99.90;;;;;;5089684;28;20584;-76
2024/01/29 03:56:00;;;;;;;0.30;0.30;;;0.90;99.90;;;;;;5089489;28;20181;-82
2024/01/29 03:58:26;;;;;;;0.30;0.30;;;0.90;99.90;;;;;;5090780;28;20212;-77
2024/01/29 04:00:51;;;;;;;0.30;0.30;;;0.90;99.90;;;;;;5090934;28;20637;-77
2024/01/29 04:03:17;;;;;;;0.30;0.30;;;0.90;99.90;;;;;;5090918;28;20208;-77
2024/01/29 04:05:45;;;;;;;0.30;0.30;;;0.90;99.90;;;;;;5089416;28;20208;-77
2024/01/29 04:08:11;;;;;;;0.30;0.30;;;0.80;99.90;;;;;;5090795;28;20265;-82
2024/01/29 04:10:37;;;;;;;0.30;0.30;;;0.80;99.90;;;;;;5090852;28;20176;-77
2024/01/29 04:13:03;;;;;;;0.30;0.30;;;0.80;99.90;;;;;;5089609;28;20279;-82
2024/01/29 04:15:29;;;;;;;0.30;0.30;;;0.80;99.90;;;;;;5089426;28;20429;-77
2024/01/29 04:17:55;;;;;;;0.30;0.30;;;0.80;99.90;;;;;;5090867;28;20566;-77
2024/01/29 04:20:20;;;;;;;0.30;0.20;;;0.70;99.90;;;;;;5089089;28;20176;-82
2024/01/29 04:22:46;;;;;;;0.30;0.30;;;0.70;99.90;;;;;;5089205;28;20196;-77
2024/01/29 04:25:12;;;;;;;0.30;0.30;;;0.70;99.90;;;;;;5090390;28;20192;-78
2024/01/29 04:27:38;;;;;;;0.30;0.30;;;0.70;99.90;;;;;;5090406;28;21810;-82
2024/01/29 04:30:05;;;;;;;0.30;0.30;;;0.70;99.90;;;;;;5090199;28;20200;-77
2024/01/29 04:32:30;;;;;;;0.30;0.20;;;0.70;99.90;;;;;;5089025;28;20187;-82
2024/01/29 04:34:56;;;;;;;0.30;0.30;;;0.70;99.90;;;;;;5088529;28;20181;-80
2024/01/29 04:37:23;;;;;;;0.30;0.20;;;0.70;99.90;;;;;;5090561;28;20222;-82
2024/01/29 04:39:49;;;;;;;0.30;0.30;;;0.80;99.90;;;;;;5090054;28;20262;-82
2024/01/29 04:42:15;;;;;;;0.30;0.30;;;0.80;99.90;;;;;;5090060;28;20212;-82
2024/01/29 04:44:40;;;;;;;0.30;0.30;;;0.90;99.90;;;;;;5088416;28;20295;-80
2024/01/29 04:47:06;;;;;;;0.30;0.30;;;0.90;99.90;;;;;;5090150;28;20176;-82
2024/01/29 04:49:32;;;;;;;0.30;0.30;;;0.90;99.90;;;;;;5089675;28;20721;-77
2024/01/29 04:51:58;;;;;;;0.30;0.30;;;1.00;99.90;;;;;;5090228;28;20259;-83
2024/01/29 04:54:23;;;;;;;0.30;0.30;;;0.90;99.90;;;;;;5090050;28;20238;-83
2024/01/29 04:56:49;;;;;;;0.30;0.30;;;0.90;99.90;;;;;;5090715;28;20425;-83
2024/01/29 04:59:15;;;;;;;0.30;0.30;;;0.90;99.90;;;;;;5089392;28;20243;-84
2024/01/29 05:01:40;;;;;;;0.30;0.30;;;0.80;99.90;;;;;;5092071;28;20184;-77
2024/01/29 05:04:07;;;;;;;0.30;0.30;;;0.90;99.90;;;;;;5109523;28;20206;-78
2024/01/29 05:06:32;;;;;;;0.30;0.30;;;0.80;99.90;;;;;;5110062;28;20228;-82
2024/01/29 05:08:58;;;;;;;0.30;0.30;;;0.80;99.90;;;;;;5109353;28;20207;-82
2024/01/29 05:11:24;;;;;;;0.30;0.30;;;0.70;99.90;;;;;;5108891;28;20171;-82
2024/01/29 05:13:50;;;;;;;0.30;0.30;;;0.70;99.90;;;;;;5105640;28;20253;-82
2024/01/29 05:16:15;;;;;;;0.30;0.30;;;0.70;99.90;;;;;;5107880;28;20184;-82
2024/01/29 05:18:42;;;;;;;0.30;0.30;;;0.60;99.90;;;;;;5109395;28;20479;-82
2024/01/29 05:21:08;;;;;;;0.30;0.30;;;0.60;99.90;;;;;;5108138;28;20667;-77
2024/01/29 05:23:34;;;;;;;0.30;0.30;;;0.60;99.90;;;;;;5108245;28;20192;-82
2024/01/29 05:26:00;;;;;;;0.30;0.30;;;0.60;99.90;;;;;;5109361;28;20390;-82
2024/01/29 05:28:25;;;;;;;0.30;0.30;;;0.60;99.90;;;;;;5108182;28;20192;-82
2024/01/29 05:30:52;;;;;;;0.30;0.30;;;0.60;99.90;;;;;;5103561;28;20184;-82
2024/01/29 05:33:17;;;;;;;0.30;0.30;;;0.50;99.90;;;;;;5086136;28;20208;-77
2024/01/29 05:35:43;;;;;;;0.30;0.30;;;0.50;99.90;;;;;;5090063;28;20192;-77
2024/01/29 05:38:09;;;;;;;0.30;0.30;;;0.40;99.90;;;;;;5106839;28;20288;-81
2024/01/29 05:40:34;;;;;;;0.30;0.30;;;0.40;99.90;;;;;;5108487;28;20222;-78
2024/01/29 05:43:00;;;;;;;0.30;0.23;;;0.40;99.90;;;;;;5106960;28;20225;-77
2024/01/29 05:45:26;;;;;;;0.30;0.30;;;0.40;99.90;;;;;;5107443;28;20198;-78
2024/01/29 05:47:52;;;;;;;0.30;0.30;;;0.40;99.90;;;;;;5108664;28;20237;-77
2024/01/29 05:50:17;;;;;;;0.30;0.30;;;0.40;99.90;;;;;;5107541;28;20183;-82
2024/01/29 05:52:43;;;;;;;0.30;0.30;;;0.40;99.90;;;;;;5108005;28;21022;-77
2024/01/29 05:55:09;;;;;;;0.30;0.30;;;0.50;99.90;;;;;;5108137;28;20540;-78
2024/01/29 05:57:35;;;;;;;0.30;0.30;;;0.50;99.90;;;;;;5097988;28;20446;-78
2024/01/29 06:00:03;;;;;;;0.30;0.30;;;0.50;99.90;;;;;;5103167;28;20427;-77
2024/01/29 06:02:29;;;;;;;0.30;0.30;;;0.60;99.90;;;;;;5108354;28;20184;-81
2024/01/29 06:04:54;;;;;;;0.30;0.30;;;0.60;99.90;;;;;;5106908;28;20184;-82
2024/01/29 06:07:20;;;;;;;0.30;0.30;;;0.70;99.90;;;;;;5108744;28;20219;-82
2024/01/29 06:09:46;;;;;;;0.30;0.30;;;0.70;99.90;;;;;;5106014;28;20580;-77
2024/01/29 06:12:11;;;;;;;0.30;0.20;;;0.70;99.90;;;;;;5105323;28;20179;-82
2024/01/29 06:14:38;;;;;;;0.30;0.30;;;0.70;99.90;;;;;;5102201;28;20214;-82
2024/01/29 06:17:03;;;;;;;0.30;0.30;;;0.60;99.90;;;;;;5104685;28;20188;-77
2024/01/29 06:19:30;;;;;;;0.30;0.30;;;0.50;99.90;;;;;;5102688;28;20390;-82
2024/01/29 06:21:55;;;;;;;0.30;0.30;;;0.50;99.90;;;;;;5107683;28;20577;-77
2024/01/29 06:24:21;;;;;;;0.30;0.30;;;0.40;99.90;;;;;;5094389;28;20314;-77
2024/01/29 06:26:47;;;;;;;0.30;0.30;;;0.40;99.90;;;;;;5090068;28;20187;-82
2024/01/29 06:29:13;;;;;;;0.30;0.30;;;0.40;99.90;;;;;;5106909;28;20221;-77
2024/01/29 06:31:42;;;;;;;0.30;0.30;;;0.40;99.90;;;;;;5116813;27;20188;-77
2024/01/29 06:34:07;;;;;;;0.30;0.30;;;0.40;99.90;;;;;;5108030;28;20479;-77
2024/01/29 06:36:33;;;;;;;0.30;0.30;;;0.40;99.90;;;;;;5107884;28;20270;-82
2024/01/29 06:38:59;;;;;;;0.30;0.20;;;0.40;99.90;;;;;;5111261;27;20483;-77
2024/01/29 06:41:26;;;;;;;0.30;0.30;;;0.40;99.90;;;;;;5098161;28;20398;-82
2024/01/29 06:43:53;;;;;;;0.30;0.30;;;0.40;99.90;;;;;;5091486;28;20665;-82
2024/01/29 06:46:20;;;;;;;0.30;0.30;;;0.50;99.90;;;;;;5095387;28;20190;-83
2024/01/29 06:48:46;;;;;;;0.30;0.30;;;0.50;99.90;;;;;;5101327;28;20483;-78
2024/01/29 06:51:12;;;;;;;0.30;0.30;;;0.60;99.90;;;;;;5102118;28;20180;-77
2024/01/29 06:53:38;;;;;;;0.30;0.30;;;0.60;99.90;;;;;;5103645;28;20497;-82
2024/01/29 06:56:04;;;;;;;0.30;0.30;;;0.60;99.90;;;;;;5104782;28;20447;-82
2024/01/29 06:58:37;;;;;;;0.30;0.30;;;0.70;99.90;;;;;;5106833;28;20241;-77
2024/01/29 07:01:03;;;;;;;0.30;0.30;;;0.70;99.90;;;;;;5109746;27;20349;-77
2024/01/29 07:03:29;;;;;;;0.30;0.30;;;0.80;99.90;;;;;;5101455;28;20318;-78
2024/01/29 07:05:55;;;;;;;0.30;0.20;;;0.90;99.90;;;;;;5106075;27;20872;-82
2024/01/29 07:08:23;;;;;;;0.30;0.30;;;1.00;99.90;;;;;;5100827;28;20199;-77
2024/01/29 07:10:48;;;;;;;0.30;0.30;;;1.10;99.90;;;;;;5109617;27;20184;-82
2024/01/29 07:13:14;;;;;;;0.30;0.30;;;1.10;99.90;;;;;;5107330;28;20204;-79
2024/01/29 07:15:42;;;;;;;0.30;0.30;;;1.30;99.90;;;;;;5108650;28;20184;-77
2024/01/29 07:18:08;;;;;;;0.38;0.38;;;1.40;99.90;;;;;;5108442;28;20220;-77
2024/01/29 07:20:39;;;;;;;4.88;4.70;;;1.60;99.90;;;;;;5104301;28;20183;-78
2024/01/29 07:23:06;;;;;;;0.30;0.30;;;1.90;99.90;;;;;;5101373;28;20203;-82
2024/01/29 07:25:31;;;;;;;0.30;0.30;;;2.30;99.90;;;;;;5105605;27;20261;-82
2024/01/29 07:28:03;;;;;;;0.30;0.30;;;2.70;99.90;;;;;;5100253;28;20203;-79
2024/01/29 07:30:30;;;;;;;0.30;0.30;;;3.00;99.90;;;;;;5115855;27;20526;-83
2024/01/29 07:32:59;;;;;;;0.30;0.30;;;3.30;99.90;;;;;;5104153;28;20204;-84
2024/01/29 07:35:25;;;;;;;0.30;0.20;;;3.40;99.90;;;;;;5105590;28;20187;-81
2024/01/29 07:37:52;;;;;;;0.30;0.30;;;3.50;99.90;;;;;;5102161;28;20216;-81
2024/01/29 07:40:19;;;;;;;0.30;0.30;;;3.60;99.90;;;;;;5102932;28;20552;-76
2024/01/29 07:42:45;;;;;;;0.30;0.20;;;3.60;99.90;;;;;;5097632;28;20207;-84
2024/01/29 07:45:11;;;;;;;0.30;0.30;;;3.80;99.90;;;;;;5098750;27;20668;-82
2024/01/29 07:47:37;;;;;;;0.30;0.30;;;4.10;99.90;;;;;;5106224;27;20241;-77
2024/01/29 07:50:03;;;;;;;0.60;0.60;;;4.40;99.90;;;;;;5113434;27;20200;-78
2024/01/29 07:52:29;;;;;;;0.30;0.20;;;4.90;99.90;;;;;;5093424;28;20662;-84
2024/01/29 07:54:55;;;;;;;0.30;0.30;;;5.40;99.90;;;;;;5103649;28;20179;-81
2024/01/29 07:57:20;;;;;;;1.40;1.40;;;5.90;99.90;;;;;;5102087;28;20186;-79
2024/01/29 07:59:46;;;;;;;0.30;0.30;;;6.40;99.90;;;;;;5102327;28;20224;-77
2024/01/29 08:02:12;;;;;;;0.97;0.97;;;6.80;99.90;;;;;;5103030;28;20266;-82
2024/01/29 08:04:38;;;;;;;0.40;0.30;;;7.20;99.90;;;;;;5102053;28;20229;-82
2024/01/29 08:07:03;;;;;;;0.70;0.70;;;7.70;99.90;;;;;;5100057;28;20439;-82
2024/01/29 08:09:29;;;;;;;0.30;0.30;;;8.30;99.90;;;;;;5100216;28;20452;-83
2024/01/29 08:11:55;;;;;;;0.60;0.60;;;9.00;99.90;;;;;;5100909;28;20428;-78
2024/01/29 08:14:21;;;;;;;2.70;2.60;;;9.40;99.90;;;;;;5091765;28;20196;-83
2024/01/29 08:16:47;;;;;;;68.63;40.50;;;10.00;99.90;;;;;;5095788;28;20420;-78
2024/01/29 08:19:13;;;;;;;1.95;1.85;;;10.70;99.90;;;;;;5104281;28;20927;-78
2024/01/29 08:21:38;;;;;;;0.87;0.87;;;11.40;99.90;;;;;;5121912;27;20237;-83
2024/01/29 08:24:05;;;;;;;1.07;1.07;;;12.10;99.90;;;;;;5117905;27;20228;-79
2024/01/29 08:26:31;;;;;;;67.72;12.52;;;12.80;99.90;;;;;;5096491;28;20800;-83
2024/01/29 08:28:57;;;;;;;0.40;0.30;;;13.40;99.90;;;;;;5099684;28;20712;-79
2024/01/29 08:31:24;;;;;;;0.40;0.30;;;14.10;99.90;;;;;;5099281;28;20753;-79
2024/01/29 08:33:50;;;;;;;0.40;0.30;;;14.70;99.00;;;;;;5106634;28;20733;-82
2024/01/29 08:36:15;;;;;;;0.50;0.50;;;15.30;97.20;;;;;;5094872;28;20444;-83
2024/01/29 08:38:42;;;;;;;0.90;0.90;;;15.80;95.90;;;;;;5091760;28;20495;-79
2024/01/29 08:41:08;;;;;;;0.40;0.30;;;16.20;94.40;;;;;;5087777;28;20421;-79
2024/01/29 08:43:34;;;;;;;1.40;1.40;;;16.60;93.20;;;;;;5134667;27;20447;-83
2024/01/29 08:46:00;;;;;;;0.73;0.73;;;16.90;92.80;;;;;;5106472;28;20912;-79
2024/01/29 08:48:26;;;;;;;0.40;0.30;;;17.30;92.70;;;;;;5107160;28;20200;-79
2024/01/29 08:50:52;;;;;;;0.40;0.30;;;17.70;91.20;;;;;;5107231;28;20254;-79
2024/01/29 08:53:17;;;;;;;0.77;0.77;;;18.10;90.70;;;;;;5102551;28;20998;-84
2024/01/29 08:55:43;;;;;;;0.40;0.30;;;18.40;89.70;;;;;;5102020;28;20703;-83
2024/01/29 08:58:09;;;;;;;0.40;0.30;;;18.90;88.30;;;;;;5103979;28;20209;-80
2024/01/29 09:00:34;;;;;;;0.40;0.30;;;19.30;86.50;;;;;;5103320;28;20227;-81
2024/01/29 09:03:00;;;;;;;0.40;0.20;;;19.50;84.60;;;;;;5103466;28;20263;-79
2024/01/29 09:05:26;;;;;;;0.40;0.30;;;19.80;83.90;;;;;;5101853;28;20263;-83
2024/01/29 09:07:52;;;;;;;0.43;0.43;;;20.10;82.10;;;;;;5104959;28;20476;-80
2024/01/29 09:10:19;;;;;;;0.40;0.30;;;20.40;82.30;;;;;;5100783;28;20191;-83
2024/01/29 09:12:44;;;;;;;0.40;0.40;;;20.70;80.40;;;;;;5092323;28;21036;-83
2024/01/29 09:15:12;;;;;;;1.33;1.03;;;20.90;78.70;;;;;;5095415;28;20274;-80
2024/01/29 09:17:37;;;;;;;0.40;0.40;;;21.20;78.50;;;;;;5084279;28;20265;-81
2024/01/29 09:20:08;;;;;;;0.40;0.30;;;21.40;77.40;;;;;;5099540;28;20949;-80
2024/01/29 09:22:34;;;;;;;4.87;4.57;;;21.70;76.90;;;;;;5097048;28;20505;-83
2024/01/29 09:24:59;;;;;;;0.40;0.30;;;21.90;75.30;;;;;;5103385;28;20420;-80
2024/01/29 09:27:25;;;;;;;0.67;0.50;;;22.10;74.10;;;;;;5116121;28;20924;-84
2024/01/29 09:29:50;;;;;;;0.40;0.30;;;22.10;73.80;;;;;;5103573;28;20715;-83
2024/01/29 09:32:16;;;;;;;0.70;0.63;;;22.30;73.50;;;;;;5102822;28;20275;-80
2024/01/29 09:34:42;;;;;;;0.40;0.20;;;22.30;72.40;;;;;;5101942;28;20570;-84
2024/01/29 09:37:07;;;;;;;1.00;0.97;;;22.20;72.00;;;;;;5113630;28;20182;-84
2024/01/29 09:39:33;;;;;;;2.10;2.00;;;22.00;71.60;;;;;;5106676;28;20766;-84
2024/01/29 09:42:03;;;;;;;2.90;2.70;;;21.80;71.70;;;;;;5084901;28;20175;-83
2024/01/29 09:44:35;;;;;;;2.30;2.10;;;21.40;71.80;;;;;;5098622;28;20208;-80
2024/01/29 09:47:04;;;;;;;3.33;3.13;;;21.10;72.30;;;;;;5104887;28;20992;-84
2024/01/29 09:49:30;;;;;;;0.40;0.30;;;20.70;73.20;;;;;;5108333;28;20995;-83
2024/01/29 09:51:56;;;;;;;1.43;1.33;;;20.20;75.00;;;;;;5103160;28;20838;-80
2024/01/29 09:54:22;;;;;;;0.57;0.57;;;19.50;75.40;;;;;;5090146;28;20233;-83
2024/01/29 09:56:47;;;;;;;0.47;0.47;;;18.90;76.60;;;;;;5083293;28;20864;-82
2024/01/29 09:59:13;;;;;;;1.13;1.13;;;18.40;77.70;;;;;;5084199;28;20497;-79
2024/01/29 10:01:40;;;;;;;0.40;0.30;;;18.10;77.60;;;;;;5086808;28;20212;-78
2024/01/29 10:04:06;;;;;;;0.30;0.20;;;18.10;77.90;;;;;;5087263;28;20194;-82
2024/01/29 10:06:31;;;;;;;0.40;0.20;;;18.20;77.90;;;;;;5086919;28;20470;-78
2024/01/29 10:08:57;;;;;;;1.97;1.87;;;18.10;77.00;;;;;;5089144;28;20197;-83
2024/01/29 10:11:24;;;;;;;0.40;0.20;;;17.80;77.40;;;;;;5108547;28;20621;-79
2024/01/29 10:14:00;;;;;;;0.70;0.70;;;17.30;78.50;;;;;;5125408;27;20838;-82
2024/01/29 10:16:30;;;;;;;0.40;0.30;;;17.00;79.10;;;;;;5124493;27;20821;-83
2024/01/29 10:19:00;;;;;;;0.40;0.30;;;16.70;79.60;;;;;;5106998;28;20566;-78
2024/01/29 10:21:26;;;;;;;0.40;0.20;;;16.50;79.70;;;;;;5108276;28;20767;-82
2024/01/29 10:23:56;;;;;;;0.40;0.30;;;16.30;80.10;;;;;;5108163;28;20530;-82
2024/01/29 10:26:23;;;;;;;1.93;1.83;;;16.00;80.70;;;;;;5113729;27;20496;-79
2024/01/29 10:29:17;;;;;;;0.40;0.20;;;15.70;81.60;;;;;;5110828;28;20792;-83
2024/01/29 10:31:42;;;;;;;0.40;0.20;;;15.30;82.60;;;;;;5091623;28;21007;-83
2024/01/29 10:34:08;;;;;;;0.40;0.30;;;14.90;83.40;;;;;;5109308;28;20428;-78
2024/01/29 10:36:38;;;;;;;0.50;0.50;;;14.70;83.20;;;;;;5107183;28;20203;-79
2024/01/29 10:39:07;;;;;;;1.60;1.50;;;14.50;83.00;;;;;;5124132;27;20603;-83
2024/01/29 10:41:34;;;;;;;0.87;0.87;;;14.40;83.80;;;;;;5119999;27;20983;-83
2024/01/29 10:44:03;;;;;;;0.93;0.93;;;14.20;84.00;;;;;;5109112;28;20674;-83
2024/01/29 10:46:33;;;;;;;0.30;0.20;;;14.10;85.10;;;;;;5109050;28;20492;-83
2024/01/29 10:49:00;;;;;;;0.30;0.20;;;14.10;85.40;;;;;;5110010;27;20988;-83
2024/01/29 10:51:26;;;;;;;0.40;0.40;;;14.00;85.30;;;;;;5108194;28;20436;-79
2024/01/29 10:53:54;;;;;;;0.30;0.23;;;13.90;85.40;;;;;;5108676;28;20436;-78
2024/01/29 10:56:21;;;;;;;0.40;0.30;;;13.90;84.40;;;;;;5107108;28;20523;-81
2024/01/29 10:58:52;;;;;;;0.30;0.20;;;13.80;85.10;;;;;;5106381;28;20483;-79
2024/01/29 11:01:18;;;;;;;0.40;0.40;;;13.70;85.40;;;;;;5109300;28;20477;-79
2024/01/29 11:03:45;;;;;;;0.30;0.20;;;13.50;86.30;;;;;;5108991;28;20960;-83
2024/01/29 11:06:29;;;;;;;0.30;0.20;;;13.40;87.10;;;;;;5109539;28;20550;-83
2024/01/29 11:09:03;;;;;;;2.20;1.33;;;13.40;87.00;;;;;;5109129;28;20862;-78
2024/01/29 11:11:30;;;;;;;0.83;0.83;;;13.20;86.80;;;;;;5108594;27;20530;-83
2024/01/29 11:13:56;;;;;;;0.30;0.20;;;13.10;88.30;;;;;;5099613;28;20446;-83
2024/01/29 11:16:22;;;;;;;0.30;0.20;;;12.90;87.50;;;;;;5106931;28;20403;-78
2024/01/29 11:18:49;;;;;;;1.03;0.77;;;12.80;87.60;;;;;;5106391;28;20483;-83
2024/01/29 11:21:14;;;;;;;0.40;0.30;;;12.70;88.00;;;;;;5106630;28;20436;-81
2024/01/29 11:23:47;;;;;;;0.40;0.20;;;12.60;88.90;;;;;;5107724;28;21119;-78
2024/01/29 11:26:14;;;;;;;0.30;0.20;;;12.60;89.40;;;;;;5091337;28;20679;-82
2024/01/29 11:28:40;;;;;;;0.40;0.30;;;12.50;89.60;;;;;;5107049;28;20440;-82
2024/01/29 11:31:12;;;;;;;0.50;0.50;;;12.50;90.00;;;;;;5105528;28;20442;-79
2024/01/29 11:33:38;;;;;;;0.30;0.20;;;12.50;90.00;;;;;;5107454;28;20688;-79
2024/01/29 11:36:13;;;;;;;0.30;0.20;;;12.40;89.80;;;;;;5103900;28;20433;-82
2024/01/29 11:38:39;;;;;;;0.30;0.20;;;12.40;89.70;;;;;;5103147;28;20525;-83
2024/01/29 11:41:05;;;;;;;0.30;0.20;;;12.30;89.50;;;;;;5099694;28;20472;-83
2024/01/29 11:43:34;;;;;;;0.30;0.20;;;12.30;90.00;;;;;;5100243;28;20860;-83
2024/01/29 11:46:00;;;;;;;0.30;0.20;;;12.20;90.30;;;;;;5101775;28;20960;-78
2024/01/29 11:48:26;;;;;;;1.13;1.03;;;12.20;90.30;;;;;;5104543;27;20206;-80
2024/01/29 11:50:53;;;;;;;0.40;0.40;;;12.20;90.40;;;;;;5105288;28;20825;-82
2024/01/29 11:53:23;;;;;;;0.30;0.20;;;12.20;90.40;;;;;;5107401;28;20228;-78
2024/01/29 11:55:49;;;;;;;0.30;0.20;;;12.20;90.40;;;;;;5100733;28;20439;-78
2024/01/29 11:58:16;;;;;;;0.30;0.20;;;12.20;90.30;;;;;;5100289;28;20479;-78
2024/01/29 12:00:43;;;;;;;0.30;0.20;;;12.30;90.40;;;;;;5103084;28;20799;-82
2024/01/29 12:03:12;;;;;;;0.93;0.93;;;12.40;90.30;;;;;;5105075;28;20443;-82
2024/01/29 12:05:37;;;;;;;0.30;0.20;;;12.40;90.40;;;;;;5104284;28;20464;-83
2024/01/29 12:08:10;;;;;;;0.70;0.63;;;12.40;90.40;;;;;;5101712;28;20450;-82
2024/01/29 12:10:36;;;;;;;0.30;0.20;;;12.40;90.50;;;;;;5105037;28;20251;-78
2024/01/29 12:13:02;;;;;;;0.30;0.20;;;12.50;90.40;;;;;;5105324;28;20439;-78
2024/01/29 12:15:28;;;;;;;0.30;0.20;;;12.50;90.60;;;;;;5109844;27;20176;-78
2024/01/29 12:17:54;;;;;;;0.30;0.20;;;12.60;90.20;;;;;;5094120;28;20476;-82
2024/01/29 12:20:20;;;;;;;0.30;0.20;;;12.50;90.10;;;;;;5102124;28;20202;-81
2024/01/29 12:22:45;;;;;;;0.30;0.20;;;12.40;90.10;;;;;;5097730;28;20471;-78
2024/01/29 12:25:12;;;;;;;0.30;0.20;;;12.40;90.20;;;;;;5101842;28;20446;-82
2024/01/29 12:27:39;;;;;;;0.30;0.20;;;12.30;90.50;;;;;;5094194;28;20449;-78
2024/01/29 12:30:13;;;;;;;0.30;0.20;;;12.30;90.40;;;;;;5098002;28;20992;-78
2024/01/29 12:32:39;;;;;;;0.30;0.20;;;12.30;90.60;;;;;;5102254;28;20436;-78
2024/01/29 12:35:24;;;;;;;0.30;0.20;;;12.30;90.60;;;;;;5092891;28;20912;-82
2024/01/29 12:37:50;;;;;;;0.30;0.20;;;12.30;90.60;;;;;;5088380;28;20496;-82
2024/01/29 12:40:15;;;;;;;0.30;0.20;;;12.30;90.30;;;;;;5104373;28;20437;-82
2024/01/29 12:42:41;;;;;;;0.40;0.20;;;12.30;90.30;;;;;;5105430;28;20444;-78
2024/01/29 12:45:17;;;;;;;0.30;0.30;;;12.30;90.40;;;;;;5105302;28;20176;-78
2024/01/29 12:47:43;;;;;;;3.20;1.23;;;12.20;91.00;;;;;;5105951;28;20473;-78
2024/01/29 12:50:08;;;;;;;0.30;0.30;;;12.20;90.70;;;;;;5104734;28;20463;-79